createdAt,value
2018-11-07T00:01:21.634Z,9.60
2018-11-07T00:03:51.664Z,9.60
2018-11-07T00:06:21.393Z,9.60
2018-11-07T00:08:50.913Z,9.60
2018-11-07T00:11:21.283Z,9.60
2018-11-07T00:13:51.467Z,9.60
2018-11-07T00:16:21.349Z,9.60
2018-11-07T00:18:50.974Z,9.60
2018-11-07T00:21:20.756Z,9.60
2018-11-07T00:23:50.425Z,9.60
2018-11-07T00:26:20.132Z,9.60
2018-11-07T00:28:49.693Z,9.60
2018-11-07T00:31:19.272Z,9.60
2018-11-07T00:33:48.818Z,9.60
2018-11-07T00:36:18.814Z,9.60
2018-11-07T00:38:48.471Z,9.60
2018-11-07T00:41:18.329Z,9.60
2018-11-07T00:43:47.812Z,9.60
2018-11-07T00:46:17.574Z,9.60
2018-11-07T00:48:47.513Z,9.60
2018-11-07T00:51:17.377Z,9.60
2018-11-07T00:53:47.222Z,9.60
2018-11-07T00:56:17.259Z,9.50
2018-11-07T00:58:46.869Z,9.50
2018-11-07T01:01:16.445Z,9.50
2018-11-07T01:03:46.258Z,9.50
2018-11-07T01:06:15.890Z,9.60
2018-11-07T01:08:45.673Z,9.60
2018-11-07T01:11:15.776Z,9.50
2018-11-07T01:13:45.333Z,9.50
2018-11-07T01:16:15.079Z,9.50
2018-11-07T01:18:44.817Z,9.50
2018-11-07T01:21:14.551Z,9.50
2018-11-07T01:23:44.205Z,9.50
2018-11-07T01:26:14.117Z,9.60
2018-11-07T01:28:43.909Z,9.60
2018-11-07T01:31:13.844Z,9.50
2018-11-07T01:33:43.539Z,9.50
2018-11-07T01:36:13.093Z,9.50
2018-11-07T01:38:42.745Z,9.50
2018-11-07T01:41:12.320Z,9.50
2018-11-07T01:43:41.846Z,9.50
2018-11-07T01:46:11.549Z,9.50
2018-11-07T01:48:41.342Z,9.50
2018-11-07T01:51:11.130Z,9.50
2018-11-07T01:53:41.063Z,9.50
2018-11-07T01:56:10.877Z,9.50
2018-11-07T01:58:40.650Z,9.50
2018-11-07T02:01:10.465Z,9.50
2018-11-07T02:03:40.384Z,9.50
2018-11-07T02:06:09.814Z,9.50
2018-11-07T02:08:39.901Z,9.50
2018-11-07T02:11:09.466Z,9.50
2018-11-07T02:13:39.197Z,9.50
2018-11-07T02:16:08.860Z,9.50
2018-11-07T02:18:38.640Z,9.50
2018-11-07T02:21:08.577Z,9.40
2018-11-07T02:23:38.152Z,9.50
2018-11-07T02:26:07.974Z,9.40
2018-11-07T02:28:37.868Z,9.50
2018-11-07T02:31:07.577Z,9.50
2018-11-07T02:33:37.465Z,9.50
2018-11-07T02:36:07.102Z,9.40
2018-11-07T02:38:37.678Z,9.40
2018-11-07T02:41:07.261Z,9.40
2018-11-07T02:43:36.810Z,9.40
2018-11-07T02:46:06.744Z,9.40
2018-11-07T02:48:36.393Z,9.40
2018-11-07T02:51:06.306Z,9.40
2018-11-07T02:53:36.216Z,9.40
2018-11-07T02:56:05.838Z,9.40
2018-11-07T02:58:35.433Z,9.40
2018-11-07T03:01:05.335Z,9.40
2018-11-07T03:03:34.822Z,9.40
2018-11-07T03:06:05.534Z,9.40
2018-11-07T03:08:35.124Z,9.40
2018-11-07T03:11:05.021Z,9.40
2018-11-07T03:13:34.877Z,9.40
2018-11-07T03:16:04.545Z,9.40
2018-11-07T03:18:34.172Z,9.40
2018-11-07T03:21:03.553Z,9.40
2018-11-07T03:23:33.373Z,9.40
2018-11-07T03:26:03.127Z,9.40
2018-11-07T03:28:32.949Z,9.40
2018-11-07T03:31:03.105Z,9.40
2018-11-07T03:33:32.677Z,9.40
2018-11-07T03:36:02.159Z,9.40
2018-11-07T03:38:31.894Z,9.40
2018-11-07T03:41:01.797Z,9.40
2018-11-07T03:43:31.436Z,9.40
2018-11-07T03:46:01.683Z,9.40
2018-11-07T03:48:32.232Z,9.30
2018-11-07T03:51:01.913Z,9.40
2018-11-07T03:53:31.788Z,9.40
2018-11-07T03:56:01.709Z,9.40
2018-11-07T03:58:31.537Z,9.40
2018-11-07T04:01:01.215Z,9.40
2018-11-07T04:03:31.687Z,9.40
2018-11-07T04:06:01.326Z,9.40
2018-11-07T04:08:31.421Z,9.40
2018-11-07T04:11:01.797Z,9.40
2018-11-07T04:13:31.261Z,9.40
2018-11-07T04:16:00.942Z,9.30
2018-11-07T04:18:30.755Z,9.30
2018-11-07T04:21:00.454Z,9.30
2018-11-07T04:23:30.265Z,9.30
2018-11-07T04:25:59.983Z,9.40
2018-11-07T04:28:29.484Z,9.40
2018-11-07T04:30:59.313Z,9.40
2018-11-07T04:33:29.125Z,9.40
2018-11-07T04:35:58.629Z,9.40
2018-11-07T04:38:28.337Z,9.40
2018-11-07T04:40:58.591Z,9.40
2018-11-07T04:43:28.156Z,9.40
2018-11-07T04:45:58.076Z,9.40
2018-11-07T04:48:27.729Z,9.40
2018-11-07T04:50:57.170Z,9.30
2018-11-07T04:53:26.837Z,9.30
2018-11-07T04:55:56.506Z,9.30
2018-11-07T04:58:26.187Z,9.30
2018-11-07T05:00:55.921Z,9.30
2018-11-07T05:03:25.837Z,9.30
2018-11-07T05:05:56.475Z,9.30
2018-11-07T05:08:26.343Z,9.30
2018-11-07T05:10:55.897Z,9.30
2018-11-07T05:13:25.514Z,9.30
2018-11-07T05:15:55.261Z,9.30
2018-11-07T05:18:24.850Z,9.30
2018-11-07T05:20:54.745Z,9.30
2018-11-07T05:23:24.232Z,9.30
2018-11-07T05:25:53.957Z,9.30
2018-11-07T05:28:23.574Z,9.20
2018-11-07T05:30:53.231Z,9.20
2018-11-07T05:33:23.085Z,9.20
2018-11-07T05:35:52.698Z,9.20
2018-11-07T05:38:22.220Z,9.20
2018-11-07T05:40:52.133Z,9.20
2018-11-07T05:43:22.018Z,9.20
2018-11-07T05:45:51.637Z,9.20
2018-11-07T05:48:21.365Z,9.20
2018-11-07T05:50:50.973Z,9.20
2018-11-07T05:53:20.483Z,9.30
2018-11-07T05:55:50.231Z,9.30
2018-11-07T05:58:20.174Z,9.30
2018-11-07T06:00:49.989Z,9.30
2018-11-07T06:03:19.545Z,9.30
2018-11-07T06:05:49.176Z,9.30
2018-11-07T06:08:18.849Z,9.30
2018-11-07T06:10:48.325Z,9.20
2018-11-07T06:13:18.073Z,9.20
2018-11-07T06:15:47.598Z,9.20
2018-11-07T06:18:17.221Z,9.20
2018-11-07T06:20:47.087Z,9.20
2018-11-07T06:23:17.177Z,9.20
2018-11-07T06:25:47.060Z,9.30
2018-11-07T06:28:16.878Z,9.20
2018-11-07T06:30:46.745Z,9.20
2018-11-07T06:33:16.453Z,9.20
2018-11-07T06:35:46.308Z,9.20
2018-11-07T06:38:16.040Z,9.20
2018-11-07T06:40:45.904Z,9.20
2018-11-07T06:43:15.487Z,9.20
2018-11-07T06:45:45.179Z,9.30
2018-11-07T06:48:15.065Z,9.20
2018-11-07T06:50:44.630Z,9.30
2018-11-07T06:53:14.303Z,9.20
2018-11-07T06:55:43.908Z,9.20
2018-11-07T06:58:13.785Z,9.20
2018-11-07T07:00:43.438Z,9.20
2018-11-07T07:03:12.985Z,9.20
2018-11-07T07:05:42.495Z,9.20
2018-11-07T07:08:12.580Z,9.20
2018-11-07T07:10:42.148Z,9.20
2018-11-07T07:13:11.605Z,9.20
2018-11-07T07:15:41.354Z,9.20
2018-11-07T07:18:11.297Z,9.20
2018-11-07T07:20:41.085Z,9.20
2018-11-07T07:23:10.818Z,9.20
2018-11-07T07:25:40.512Z,9.30
2018-11-07T07:28:10.182Z,9.30
2018-11-07T07:30:40.167Z,9.20
2018-11-07T07:33:09.774Z,9.30
2018-11-07T07:35:39.473Z,9.30
2018-11-07T07:38:09.545Z,9.30
2018-11-07T07:40:39.293Z,9.30
2018-11-07T07:43:08.759Z,9.30
2018-11-07T07:45:38.598Z,9.30
2018-11-07T07:48:08.094Z,9.30
2018-11-07T07:50:38.034Z,9.30
2018-11-07T07:53:07.565Z,9.20
2018-11-07T07:55:37.137Z,9.30
2018-11-07T07:58:06.818Z,9.30
2018-11-07T08:00:36.508Z,9.30
2018-11-07T08:03:06.298Z,9.30
2018-11-07T08:05:36.265Z,9.30
2018-11-07T08:08:05.993Z,9.30
2018-11-07T08:10:35.649Z,9.30
2018-11-07T08:13:05.592Z,9.30
2018-11-07T08:15:35.208Z,9.30
2018-11-07T08:18:05.303Z,9.30
2018-11-07T08:20:34.777Z,9.30
2018-11-07T08:23:04.553Z,9.30
2018-11-07T08:25:34.406Z,9.30
2018-11-07T08:28:04.025Z,9.30
2018-11-07T08:30:33.735Z,9.30
2018-11-07T08:33:03.240Z,9.30
2018-11-07T08:35:33.100Z,9.30
2018-11-07T08:38:02.800Z,9.30
2018-11-07T08:40:32.358Z,9.30
2018-11-07T08:43:02.246Z,9.30
2018-11-07T08:45:31.734Z,9.30
2018-11-07T08:48:01.515Z,9.30
2018-11-07T08:50:31.357Z,9.30
2018-11-07T08:53:00.881Z,9.30
2018-11-07T08:55:30.605Z,9.30
2018-11-07T08:58:00.217Z,9.30
2018-11-07T09:00:29.818Z,9.30
2018-11-07T09:02:59.472Z,9.30
2018-11-07T09:05:28.910Z,9.30
2018-11-07T09:07:58.528Z,9.30
2018-11-07T09:10:28.257Z,9.30
2018-11-07T09:12:58.073Z,9.40
2018-11-07T09:15:27.810Z,9.40
2018-11-07T09:17:57.287Z,9.40
2018-11-07T09:20:27.293Z,9.40
2018-11-07T09:22:56.989Z,9.40
2018-11-07T09:25:26.746Z,9.40
2018-11-07T09:27:56.493Z,9.40
2018-11-07T09:30:26.381Z,9.40
2018-11-07T09:32:56.134Z,9.40
2018-11-07T09:35:25.799Z,9.40
2018-11-07T09:37:55.390Z,9.40
2018-11-07T09:40:24.982Z,9.40
2018-11-07T09:42:54.762Z,9.40
2018-11-07T09:45:24.493Z,9.40
2018-11-07T09:47:54.089Z,9.50
2018-11-07T09:50:23.801Z,9.50
2018-11-07T09:52:53.445Z,9.50
2018-11-07T09:55:23.221Z,9.50
2018-11-07T09:57:52.922Z,9.50
2018-11-07T10:00:22.931Z,9.50
2018-11-07T10:02:52.765Z,9.50
2018-11-07T10:05:22.347Z,9.50
2018-11-07T10:07:52.197Z,9.50
2018-11-07T10:10:22.413Z,9.50
2018-11-07T10:12:52.162Z,9.50
2018-11-07T10:15:22.346Z,9.50
2018-11-07T10:17:52.266Z,9.50
2018-11-07T10:20:23.135Z,9.50
2018-11-07T10:22:52.923Z,9.50
2018-11-07T10:25:22.936Z,9.50
2018-11-07T10:27:53.101Z,9.50
2018-11-07T10:30:22.617Z,9.50
2018-11-07T10:32:52.429Z,9.50
2018-11-07T10:35:22.349Z,9.50
2018-11-07T10:37:51.980Z,9.50
2018-11-07T10:40:22.873Z,9.50
2018-11-07T10:42:52.396Z,9.50
2018-11-07T10:45:21.905Z,9.50
2018-11-07T10:47:51.809Z,9.50
2018-11-07T10:50:21.921Z,9.50
2018-11-07T10:52:52.013Z,9.50
2018-11-07T10:55:21.647Z,9.50
2018-11-07T10:57:51.281Z,9.50
2018-11-07T11:00:26.083Z,9.50
2018-11-07T11:03:13.704Z,9.50
2018-11-07T11:05:43.431Z,9.50
2018-11-07T11:08:13.019Z,9.50
2018-11-07T11:10:42.985Z,9.50
2018-11-07T11:13:12.801Z,9.50
2018-11-07T11:15:42.758Z,9.50
2018-11-07T11:18:12.414Z,9.60
2018-11-07T11:20:41.941Z,9.60
2018-11-07T11:23:12.593Z,9.60
2018-11-07T11:25:42.447Z,9.60
2018-11-07T11:28:12.222Z,9.60
2018-11-07T11:30:41.970Z,9.60
2018-11-07T11:33:12.669Z,9.60
2018-11-07T11:35:42.437Z,9.50
2018-11-07T11:38:11.999Z,9.50
2018-11-07T11:40:41.913Z,9.50
2018-11-07T11:43:11.530Z,9.60
2018-11-07T11:45:42.269Z,9.60
2018-11-07T11:48:12.155Z,9.60
2018-11-07T11:50:42.258Z,9.60
2018-11-07T11:53:11.724Z,9.60
2018-11-07T11:55:41.425Z,9.50
2018-11-07T11:58:11.343Z,9.60
2018-11-07T12:00:41.140Z,9.60
2018-11-07T12:03:10.939Z,9.60
2018-11-07T12:05:41.090Z,9.60
2018-11-07T12:08:10.562Z,9.60
2018-11-07T12:10:40.422Z,9.60
2018-11-07T12:13:10.427Z,9.60
2018-11-07T12:15:40.441Z,9.60
2018-11-07T12:18:10.593Z,9.60
2018-11-07T12:20:41.117Z,9.60
2018-11-07T12:23:10.905Z,9.60
2018-11-07T12:25:41.042Z,9.60
2018-11-07T12:28:10.544Z,9.60
2018-11-07T12:30:40.141Z,9.50
2018-11-07T12:33:10.137Z,9.60
2018-11-07T12:35:39.796Z,9.50
2018-11-07T12:38:09.329Z,9.50
2018-11-07T12:40:39.009Z,9.60
2018-11-07T12:43:08.881Z,9.60
2018-11-07T12:45:38.399Z,9.60
2018-11-07T12:48:08.153Z,9.50
2018-11-07T12:50:37.716Z,9.50
2018-11-07T12:53:07.340Z,9.60
2018-11-07T12:55:37.029Z,9.50
2018-11-07T12:58:06.803Z,9.50
2018-11-07T13:00:36.748Z,9.50
2018-11-07T13:03:06.747Z,9.50
2018-11-07T13:05:36.285Z,9.50
2018-11-07T13:08:06.032Z,9.50
2018-11-07T13:10:36.113Z,9.50
2018-11-07T13:13:06.254Z,9.50
2018-11-07T13:15:36.037Z,9.50
2018-11-07T13:18:06.090Z,9.50
2018-11-07T13:20:35.700Z,9.50
2018-11-07T13:23:05.573Z,9.50
2018-11-07T13:25:36.134Z,9.50
2018-11-07T13:28:05.995Z,9.50
2018-11-07T13:30:35.799Z,9.50
2018-11-07T13:33:05.773Z,9.50
2018-11-07T13:35:35.565Z,9.50
2018-11-07T13:38:05.580Z,9.50
2018-11-07T13:40:35.029Z,9.40
2018-11-07T13:43:04.633Z,9.50
2018-11-07T13:45:34.315Z,9.40
2018-11-07T13:48:04.044Z,9.40
2018-11-07T13:50:33.924Z,9.40
2018-11-07T13:53:03.704Z,9.40
2018-11-07T13:55:33.249Z,9.40
2018-11-07T13:58:02.874Z,9.40
2018-11-07T14:00:32.589Z,9.40
2018-11-07T14:03:02.152Z,9.40
2018-11-07T14:05:31.827Z,9.40
2018-11-07T14:08:01.702Z,9.40
2018-11-07T14:10:31.625Z,9.40
2018-11-07T14:13:01.726Z,9.40
2018-11-07T14:15:31.781Z,9.40
2018-11-07T14:18:01.675Z,9.40
2018-11-07T14:20:31.216Z,9.40
2018-11-07T14:23:00.966Z,9.40
2018-11-07T14:25:30.771Z,9.40
2018-11-07T14:28:00.841Z,9.40
2018-11-07T14:30:30.413Z,9.40
2018-11-07T14:33:01.144Z,9.40
2018-11-07T14:35:30.708Z,9.40
2018-11-07T14:38:00.453Z,9.30
2018-11-07T14:40:30.077Z,9.30
2018-11-07T14:43:00.102Z,9.30
2018-11-07T14:45:29.865Z,9.30
2018-11-07T14:47:59.691Z,9.30
2018-11-07T14:50:29.406Z,9.30
2018-11-07T14:52:58.902Z,9.30
2018-11-07T14:55:28.551Z,9.30
2018-11-07T14:57:58.056Z,9.30
2018-11-07T15:00:27.729Z,9.30
2018-11-07T15:02:57.401Z,9.30
2018-11-07T15:05:27.060Z,9.30
2018-11-07T15:07:56.681Z,9.30
2018-11-07T15:10:26.724Z,9.30
2018-11-07T15:12:56.433Z,9.30
2018-11-07T15:15:26.089Z,9.30
2018-11-07T15:17:55.691Z,9.30
2018-11-07T15:20:25.609Z,9.30
2018-11-07T15:22:55.133Z,9.30
2018-11-07T15:25:25.113Z,9.30
2018-11-07T15:27:54.597Z,9.30
2018-11-07T15:30:24.242Z,9.20
2018-11-07T15:32:53.901Z,9.20
2018-11-07T15:35:23.881Z,9.20
2018-11-07T15:37:53.750Z,9.20
2018-11-07T15:40:23.256Z,9.20
2018-11-07T15:42:52.893Z,9.20
2018-11-07T15:45:22.527Z,9.20
2018-11-07T15:47:52.258Z,9.20
2018-11-07T15:50:27.110Z,9.20
2018-11-07T15:52:56.837Z,9.20
2018-11-07T15:55:26.564Z,9.20
2018-11-07T15:57:56.458Z,9.20
2018-11-07T16:00:26.096Z,9.20
2018-11-07T16:02:55.590Z,9.30
2018-11-07T16:05:25.289Z,9.20
2018-11-07T16:07:54.933Z,9.20
2018-11-07T16:10:24.529Z,9.20
2018-11-07T16:12:54.089Z,9.20
2018-11-07T16:15:23.639Z,9.20
2018-11-07T16:17:53.537Z,9.20
2018-11-07T16:20:23.429Z,9.20
2018-11-07T16:22:53.267Z,9.30
2018-11-07T16:25:22.977Z,9.20
2018-11-07T16:27:52.986Z,9.20
2018-11-07T16:30:22.688Z,9.30
2018-11-07T16:32:52.498Z,9.20
2018-11-07T16:35:22.045Z,9.30
2018-11-07T16:37:51.763Z,9.20
2018-11-07T16:40:21.374Z,9.20
2018-11-07T16:42:51.135Z,9.20
2018-11-07T16:45:20.801Z,9.20
2018-11-07T16:47:50.466Z,9.20
2018-11-07T16:50:19.970Z,9.20
2018-11-07T16:52:49.946Z,9.20
2018-11-07T16:55:19.753Z,9.20
2018-11-07T16:57:49.710Z,9.20
2018-11-07T17:00:20.876Z,9.20
2018-11-07T17:02:50.847Z,9.20
2018-11-07T17:05:20.722Z,9.20
2018-11-07T17:07:50.789Z,9.10
2018-11-07T17:10:20.227Z,9.20
2018-11-07T17:12:50.226Z,9.10
2018-11-07T17:15:19.994Z,9.10
2018-11-07T17:17:49.785Z,9.10
2018-11-07T17:20:19.397Z,9.10
2018-11-07T17:22:48.892Z,9.00
2018-11-07T17:25:19.955Z,9.00
2018-11-07T17:27:49.769Z,9.00
2018-11-07T17:30:19.669Z,9.00
2018-11-07T17:32:49.252Z,9.00
2018-11-07T17:35:19.471Z,9.00
2018-11-07T17:37:49.162Z,9.00
2018-11-07T17:40:20.297Z,9.00
2018-11-07T17:42:50.141Z,9.00
2018-11-07T17:45:20.640Z,9.00
2018-11-07T17:47:50.974Z,9.00
2018-11-07T17:50:22.100Z,9.00
2018-11-07T17:52:52.250Z,9.00
2018-11-07T17:55:22.322Z,9.00
2018-11-07T17:57:52.122Z,9.00
2018-11-07T18:00:26.195Z,9.00
2018-11-07T18:02:56.300Z,9.00
2018-11-07T18:05:26.190Z,9.00
2018-11-07T18:07:55.737Z,9.00
2018-11-07T18:10:25.409Z,8.90
2018-11-07T18:12:55.268Z,9.00
2018-11-07T18:15:25.085Z,9.00
2018-11-07T18:17:55.018Z,8.90
2018-11-07T18:20:25.014Z,9.00
2018-11-07T18:22:54.554Z,8.90
2018-11-07T18:25:24.190Z,8.90
2018-11-07T18:27:53.925Z,8.90
2018-11-07T18:30:23.362Z,8.90
2018-11-07T18:32:53.385Z,8.90
2018-11-07T18:35:23.030Z,8.90
2018-11-07T18:37:52.477Z,8.90
2018-11-07T18:40:22.522Z,8.90
2018-11-07T18:42:52.193Z,8.90
2018-11-07T18:45:21.908Z,8.90
2018-11-07T18:47:51.759Z,8.90
2018-11-07T18:50:21.532Z,8.80
2018-11-07T18:52:51.218Z,8.80
2018-11-07T18:55:20.690Z,8.90
2018-11-07T18:57:50.353Z,8.80
2018-11-07T19:00:20.668Z,8.80
2018-11-07T19:02:50.990Z,8.80
2018-11-07T19:05:20.810Z,8.80
2018-11-07T19:07:50.389Z,8.80
2018-11-07T19:10:21.095Z,8.70
2018-11-07T19:12:51.193Z,8.70
2018-11-07T19:15:21.029Z,8.70
2018-11-07T19:17:51.407Z,8.70
2018-11-07T19:20:21.435Z,8.70
2018-11-07T19:22:51.040Z,8.70
2018-11-07T19:25:21.445Z,8.70
2018-11-07T19:27:51.270Z,8.70
2018-11-07T19:30:21.846Z,8.70
2018-11-07T19:32:52.730Z,8.70
2018-11-07T19:35:22.810Z,8.70
2018-11-07T19:37:52.919Z,8.70
2018-11-07T19:40:24.798Z,8.70
2018-11-07T19:42:54.493Z,8.70
2018-11-07T19:45:24.496Z,8.70
2018-11-07T19:47:54.565Z,8.70
2018-11-07T19:50:24.397Z,8.80
2018-11-07T19:52:54.121Z,8.70
2018-11-07T19:55:24.728Z,8.70
2018-11-07T19:57:56.257Z,8.70
2018-11-07T20:00:26.030Z,8.70
2018-11-07T20:02:56.202Z,8.70
2018-11-07T20:05:26.093Z,8.70
2018-11-07T20:07:55.833Z,8.70
2018-11-07T20:10:25.978Z,8.70
2018-11-07T20:12:55.763Z,8.70
2018-11-07T20:15:25.745Z,8.70
2018-11-07T20:17:55.368Z,8.70
2018-11-07T20:20:25.288Z,8.70
2018-11-07T20:22:55.020Z,8.70
2018-11-07T20:25:24.557Z,8.70
2018-11-07T20:27:55.031Z,8.70
2018-11-07T20:30:25.027Z,8.70
2018-11-07T20:32:54.848Z,8.70
2018-11-07T20:35:24.564Z,8.70
2018-11-07T20:37:54.275Z,8.70
2018-11-07T20:40:24.325Z,8.70
2018-11-07T20:42:53.877Z,8.70
2018-11-07T20:45:23.500Z,8.70
2018-11-07T20:47:53.432Z,8.70
2018-11-07T20:50:23.025Z,8.70
2018-11-07T20:52:52.511Z,8.80
2018-11-07T20:55:22.139Z,8.70
2018-11-07T20:57:52.147Z,8.80
2018-11-07T21:00:22.896Z,8.80
2018-11-07T21:02:52.693Z,8.80
2018-11-07T21:05:22.436Z,8.80
2018-11-07T21:07:52.155Z,8.80
2018-11-07T21:10:22.525Z,8.80
2018-11-07T21:12:52.477Z,8.80
2018-11-07T21:15:22.729Z,8.80
2018-11-07T21:17:52.411Z,8.80
2018-11-07T21:20:22.103Z,8.80
2018-11-07T21:22:51.597Z,8.80
2018-11-07T21:25:21.263Z,8.80
2018-11-07T21:27:50.710Z,8.80
2018-11-07T21:30:20.385Z,8.80
2018-11-07T21:32:50.077Z,8.90
2018-11-07T21:35:19.693Z,8.90
2018-11-07T21:37:49.156Z,8.90
2018-11-07T21:40:19.101Z,8.80
2018-11-07T21:42:48.953Z,8.80
2018-11-07T21:45:18.757Z,8.80
2018-11-07T21:47:48.352Z,8.90
2018-11-07T21:50:18.132Z,8.80
2018-11-07T21:52:47.818Z,8.80
2018-11-07T21:55:17.751Z,8.90
2018-11-07T21:57:47.902Z,8.90
2018-11-07T22:00:18.791Z,8.80
2018-11-07T22:02:48.745Z,8.80
2018-11-07T22:05:18.644Z,8.80
2018-11-07T22:07:48.600Z,8.80
2018-11-07T22:10:18.989Z,8.80
2018-11-07T22:12:48.595Z,8.90
2018-11-07T22:15:18.517Z,8.80
2018-11-07T22:17:48.305Z,8.80
2018-11-07T22:20:19.783Z,8.90
2018-11-07T22:22:50.455Z,8.90
2018-11-07T22:25:20.431Z,8.90
2018-11-07T22:27:49.961Z,8.90
2018-11-07T22:30:19.694Z,8.90
2018-11-07T22:32:49.330Z,8.90
2018-11-07T22:35:18.937Z,8.90
2018-11-07T22:37:48.873Z,8.90
2018-11-07T22:40:19.662Z,8.90
2018-11-07T22:42:49.123Z,8.90
2018-11-07T22:45:18.883Z,8.90
2018-11-07T22:47:48.797Z,8.80
2018-11-07T22:50:18.377Z,8.80
2018-11-07T22:52:48.315Z,8.80
2018-11-07T22:55:18.232Z,8.80
2018-11-07T22:57:47.724Z,8.80
2018-11-07T23:00:23.145Z,8.90
2018-11-07T23:02:54.119Z,8.90
2018-11-07T23:05:24.492Z,8.90
2018-11-07T23:07:54.230Z,8.80
2018-11-07T23:10:23.904Z,8.80
2018-11-07T23:12:53.978Z,8.80
2018-11-07T23:15:28.955Z,8.80
2018-11-07T23:17:58.747Z,8.90
2018-11-07T23:20:28.292Z,8.80
2018-11-07T23:22:58.331Z,8.80
2018-11-07T23:25:27.927Z,8.80
2018-11-07T23:27:57.560Z,8.80
2018-11-07T23:30:27.179Z,8.80
2018-11-07T23:32:56.981Z,8.80
2018-11-07T23:35:27.045Z,8.80
2018-11-07T23:37:56.651Z,8.80
2018-11-07T23:40:26.357Z,8.80
2018-11-07T23:42:56.117Z,8.80
2018-11-07T23:45:25.603Z,8.80
2018-11-07T23:47:55.712Z,8.80
2018-11-07T23:50:25.420Z,8.80
2018-11-07T23:52:55.029Z,8.80
2018-11-07T23:55:25.106Z,8.80
2018-11-07T23:57:55.158Z,8.80
